sensor_id;sensor_type;location;lat;lon;timestamp;pressure;altitude;pressure_sealevel;temperature;humidity
64336;BME280;50672;53.362;-6.240;2023-02-14T00:02:20;102700.06;;;6.99;73.98
64336;BME280;50672;53.362;-6.240;2023-02-14T00:04:52;102687.28;;;7.01;74.12
64336;BME280;50672;53.362;-6.240;2023-02-14T00:07:21;102665.41;;;7.05;74.46
64336;BME280;50672;53.362;-6.240;2023-02-14T00:09:49;102668.03;;;7.06;74.45
64336;BME280;50672;53.362;-6.240;2023-02-14T00:12:19;102679.06;;;7.03;74.66
64336;BME280;50672;53.362;-6.240;2023-02-14T00:14:49;102692.50;;;7.05;74.60
64336;BME280;50672;53.362;-6.240;2023-02-14T00:17:37;102680.81;;;7.04;74.40
64336;BME280;50672;53.362;-6.240;2023-02-14T00:20:06;102678.19;;;7.03;74.51
64336;BME280;50672;53.362;-6.240;2023-02-14T00:22:33;102685.25;;;7.05;74.69
64336;BME280;50672;53.362;-6.240;2023-02-14T00:25:05;102689.72;;;7.06;74.57
64336;BME280;50672;53.362;-6.240;2023-02-14T00:27:34;102684.28;;;7.06;74.52
64336;BME280;50672;53.362;-6.240;2023-02-14T00:30:09;102679.06;;;7.03;74.35
64336;BME280;50672;53.362;-6.240;2023-02-14T00:32:40;102675.38;;;7.04;74.43
64336;BME280;50672;53.362;-6.240;2023-02-14T00:35:11;102682.53;;;7.05;74.30
64336;BME280;50672;53.362;-6.240;2023-02-14T00:37:42;102676.16;;;7.06;74.47
64336;BME280;50672;53.362;-6.240;2023-02-14T00:40:14;102662.53;;;7.08;74.59
64336;BME280;50672;53.362;-6.240;2023-02-14T00:42:43;102662.63;;;7.06;74.36
64336;BME280;50672;53.362;-6.240;2023-02-14T00:45:10;102664.34;;;7.07;74.31
64336;BME280;50672;53.362;-6.240;2023-02-14T00:47:40;102662.63;;;7.06;74.41
64336;BME280;50672;53.362;-6.240;2023-02-14T00:50:10;102668.91;;;7.07;74.49
64336;BME280;50672;53.362;-6.240;2023-02-14T00:52:39;102661.63;;;7.07;74.77
64336;BME280;50672;53.362;-6.240;2023-02-14T00:55:11;102675.94;;;7.09;74.94
64336;BME280;50672;53.362;-6.240;2023-02-14T00:57:42;102657.84;;;7.10;75.11
64336;BME280;50672;53.362;-6.240;2023-02-14T01:00:14;102659.59;;;7.11;75.07
64336;BME280;50672;53.362;-6.240;2023-02-14T01:02:42;102661.34;;;7.12;74.94
64336;BME280;50672;53.362;-6.240;2023-02-14T01:05:10;102663.06;;;7.13;75.06
64336;BME280;50672;53.362;-6.240;2023-02-14T01:07:40;102651.25;;;7.14;75.30
64336;BME280;50672;53.362;-6.240;2023-02-14T01:10:16;102666.44;;;7.16;75.45
64336;BME280;50672;53.362;-6.240;2023-02-14T01:12:46;102663.50;;;7.19;75.48
64336;BME280;50672;53.362;-6.240;2023-02-14T01:15:18;102658.75;;;7.23;75.54
64336;BME280;50672;53.362;-6.240;2023-02-14T01:17:48;102656.78;;;7.25;75.58
64336;BME280;50672;53.362;-6.240;2023-02-14T01:20:18;102647.59;;;7.28;75.70
64336;BME280;50672;53.362;-6.240;2023-02-14T01:22:46;102640.97;;;7.32;75.78
64336;BME280;50672;53.362;-6.240;2023-02-14T01:25:16;102637.19;;;7.34;76.01
64336;BME280;50672;53.362;-6.240;2023-02-14T01:27:45;102634.25;;;7.38;76.04
64336;BME280;50672;53.362;-6.240;2023-02-14T01:30:14;102632.09;;;7.43;75.98
64336;BME280;50672;53.362;-6.240;2023-02-14T01:32:44;102628.84;;;7.50;76.15
64336;BME280;50672;53.362;-6.240;2023-02-14T01:35:14;102614.88;;;7.57;76.04
64336;BME280;50672;53.362;-6.240;2023-02-14T01:37:45;102608.03;;;7.64;76.15
64336;BME280;50672;53.362;-6.240;2023-02-14T01:40:14;102624.06;;;7.67;76.57
64336;BME280;50672;53.362;-6.240;2023-02-14T01:42:43;102621.22;;;7.68;76.34
64336;BME280;50672;53.362;-6.240;2023-02-14T01:45:20;102616.69;;;7.69;76.49
64336;BME280;50672;53.362;-6.240;2023-02-14T01:47:50;102621.22;;;7.68;76.58
64336;BME280;50672;53.362;-6.240;2023-02-14T01:50:22;102623.19;;;7.66;76.65
64336;BME280;50672;53.362;-6.240;2023-02-14T01:53:01;102624.28;;;7.64;76.71
64336;BME280;50672;53.362;-6.240;2023-02-14T01:55:31;102623.63;;;7.60;76.98
64336;BME280;50672;53.362;-6.240;2023-02-14T01:58:03;102618.53;;;7.56;76.99
64336;BME280;50672;53.362;-6.240;2023-02-14T02:00:34;102605.22;;;7.52;77.19
64336;BME280;50672;53.362;-6.240;2023-02-14T02:03:40;102604.44;;;7.50;77.33
64336;BME280;50672;53.362;-6.240;2023-02-14T02:08:59;102606.94;;;7.41;77.63
64336;BME280;50672;53.362;-6.240;2023-02-14T02:11:32;102618.00;;;7.38;77.86
64336;BME280;50672;53.362;-6.240;2023-02-14T02:13:59;102611.06;;;7.33;78.23
64336;BME280;50672;53.362;-6.240;2023-02-14T02:16:46;102604.78;;;7.33;78.27
64336;BME280;50672;53.362;-6.240;2023-02-14T02:36:36;102594.38;;;7.27;79.46
64336;BME280;50672;53.362;-6.240;2023-02-14T02:44:48;102603.06;;;7.32;79.74
64336;BME280;50672;53.362;-6.240;2023-02-14T02:50:21;102600.34;;;7.32;80.44
64336;BME280;50672;53.362;-6.240;2023-02-14T02:53:23;102585.06;;;7.31;80.50
64336;BME280;50672;53.362;-6.240;2023-02-14T02:58:45;102605.03;;;7.30;80.57
64336;BME280;50672;53.362;-6.240;2023-02-14T03:01:19;102602.38;;;7.28;80.47
64336;BME280;50672;53.362;-6.240;2023-02-14T03:04:13;102596.13;;;7.28;80.54
64336;BME280;50672;53.362;-6.240;2023-02-14T03:06:58;102596.34;;;7.25;80.78
64336;BME280;50672;53.362;-6.240;2023-02-14T03:14:54;102605.44;;;7.24;80.92
64336;BME280;50672;53.362;-6.240;2023-02-14T03:22:53;102600.56;;;7.29;80.87
64336;BME280;50672;53.362;-6.240;2023-02-14T03:28:42;102583.13;;;7.33;81.17
64336;BME280;50672;53.362;-6.240;2023-02-14T03:31:19;102568.63;;;7.34;80.92
64336;BME280;50672;53.362;-6.240;2023-02-14T03:33:57;102559.59;;;7.33;81.34
64336;BME280;50672;53.362;-6.240;2023-02-14T03:36:37;102555.81;;;7.36;81.30
64336;BME280;50672;53.362;-6.240;2023-02-14T03:39:17;102561.97;;;7.38;81.39
64336;BME280;50672;53.362;-6.240;2023-02-14T03:42:22;102539.75;;;7.46;81.58
64336;BME280;50672;53.362;-6.240;2023-02-14T03:44:52;102534.78;;;7.52;82.01
64336;BME280;50672;53.362;-6.240;2023-02-14T03:47:26;102531.38;;;7.62;82.01
64336;BME280;50672;53.362;-6.240;2023-02-14T03:50:01;102545.47;;;7.67;82.32
64336;BME280;50672;53.362;-6.240;2023-02-14T03:52:32;102532.44;;;7.72;82.64
64336;BME280;50672;53.362;-6.240;2023-02-14T03:55:03;102534.19;;;7.73;82.68
64336;BME280;50672;53.362;-6.240;2023-02-14T03:57:39;102527.63;;;7.76;82.65
64336;BME280;50672;53.362;-6.240;2023-02-14T04:00:10;102528.41;;;7.78;83.02
64336;BME280;50672;53.362;-6.240;2023-02-14T04:02:47;102531.34;;;7.75;82.88
64336;BME280;50672;53.362;-6.240;2023-02-14T04:05:22;102537.22;;;7.68;83.06
64336;BME280;50672;53.362;-6.240;2023-02-14T04:07:57;102540.28;;;7.64;83.49
64336;BME280;50672;53.362;-6.240;2023-02-14T04:10:25;102530.41;;;7.63;83.62
64336;BME280;50672;53.362;-6.240;2023-02-14T04:12:55;102546.44;;;7.66;83.88
64336;BME280;50672;53.362;-6.240;2023-02-14T04:15:23;102541.78;;;7.68;83.89
64336;BME280;50672;53.362;-6.240;2023-02-14T04:17:50;102537.75;;;7.74;84.24
64336;BME280;50672;53.362;-6.240;2023-02-14T04:20:36;102534.91;;;7.75;84.14
64336;BME280;50672;53.362;-6.240;2023-02-14T04:23:06;102536.66;;;7.76;84.20
64336;BME280;50672;53.362;-6.240;2023-02-14T04:25:35;102525.03;;;7.74;84.41
64336;BME280;50672;53.362;-6.240;2023-02-14T04:28:08;102520.63;;;7.73;84.35
64336;BME280;50672;53.362;-6.240;2023-02-14T04:30:35;102534.06;;;7.75;84.47
64336;BME280;50672;53.362;-6.240;2023-02-14T04:33:03;102527.56;;;7.77;84.37
64336;BME280;50672;53.362;-6.240;2023-02-14T04:35:34;102514.75;;;7.79;84.52
64336;BME280;50672;53.362;-6.240;2023-02-14T04:38:03;102516.25;;;7.83;84.36
64336;BME280;50672;53.362;-6.240;2023-02-14T04:40:34;102515.16;;;7.86;84.41
64336;BME280;50672;53.362;-6.240;2023-02-14T04:43:06;102512.97;;;7.91;84.14
64336;BME280;50672;53.362;-6.240;2023-02-14T04:45:36;102514.25;;;7.98;84.24
64336;BME280;50672;53.362;-6.240;2023-02-14T04:48:08;102513.88;;;8.03;84.00
64336;BME280;50672;53.362;-6.240;2023-02-14T04:50:36;102499.25;;;8.06;84.18
64336;BME280;50672;53.362;-6.240;2023-02-14T04:53:06;102487.28;;;8.08;84.17
64336;BME280;50672;53.362;-6.240;2023-02-14T04:55:38;102506.50;;;8.05;84.05
64336;BME280;50672;53.362;-6.240;2023-02-14T04:58:09;102493.16;;;8.02;84.01
64336;BME280;50672;53.362;-6.240;2023-02-14T05:00:40;102506.22;;;7.97;84.05
64336;BME280;50672;53.362;-6.240;2023-02-14T05:03:08;102500.28;;;7.92;84.14
64336;BME280;50672;53.362;-6.240;2023-02-14T05:05:37;102503.34;;;7.87;83.70
64336;BME280;50672;53.362;-6.240;2023-02-14T05:08:09;102495.28;;;7.85;83.86
64336;BME280;50672;53.362;-6.240;2023-02-14T05:10:39;102502.56;;;7.85;83.87
64336;BME280;50672;53.362;-6.240;2023-02-14T05:13:06;102490.00;;;7.84;83.75
64336;BME280;50672;53.362;-6.240;2023-02-14T05:15:35;102490.00;;;7.84;83.81
64336;BME280;50672;53.362;-6.240;2023-02-14T05:18:04;102494.31;;;7.86;83.99
64336;BME280;50672;53.362;-6.240;2023-02-14T05:20:36;102491.50;;;7.88;83.70
64336;BME280;50672;53.362;-6.240;2023-02-14T05:23:06;102483.25;;;7.90;84.10
64336;BME280;50672;53.362;-6.240;2023-02-14T05:25:39;102476.84;;;7.91;84.28
64336;BME280;50672;53.362;-6.240;2023-02-14T05:28:09;102479.56;;;7.91;84.02
64336;BME280;50672;53.362;-6.240;2023-02-14T05:30:36;102488.47;;;7.93;84.08
64336;BME280;50672;53.362;-6.240;2023-02-14T05:33:04;102479.31;;;7.94;84.32
64336;BME280;50672;53.362;-6.240;2023-02-14T05:35:34;102488.09;;;7.97;84.33
64336;BME280;50672;53.362;-6.240;2023-02-14T05:38:02;102480.63;;;8.01;84.20
64336;BME280;50672;53.362;-6.240;2023-02-14T05:40:33;102483.22;;;8.02;84.63
64336;BME280;50672;53.362;-6.240;2023-02-14T05:43:02;102481.47;;;8.01;84.66
64336;BME280;50672;53.362;-6.240;2023-02-14T05:45:35;102477.97;;;7.99;84.75
64336;BME280;50672;53.362;-6.240;2023-02-14T05:48:04;102474.41;;;7.99;84.80
64336;BME280;50672;53.362;-6.240;2023-02-14T05:50:36;102474.41;;;7.99;84.57
64336;BME280;50672;53.362;-6.240;2023-02-14T05:53:07;102467.50;;;7.95;84.86
64336;BME280;50672;53.362;-6.240;2023-02-14T05:55:37;102470.44;;;7.92;85.09
64336;BME280;50672;53.362;-6.240;2023-02-14T05:58:06;102473.91;;;7.94;85.04
64336;BME280;50672;53.362;-6.240;2023-02-14T06:00:34;102471.94;;;7.96;85.42
64336;BME280;50672;53.362;-6.240;2023-02-14T06:03:08;102482.56;;;7.99;85.29
64336;BME280;50672;53.362;-6.240;2023-02-14T06:05:38;102477.91;;;8.01;85.50
64336;BME280;50672;53.362;-6.240;2023-02-14T06:08:10;102478.88;;;8.00;85.70
64336;BME280;50672;53.362;-6.240;2023-02-14T06:10:37;102468.03;;;8.00;85.84
64336;BME280;50672;53.362;-6.240;2023-02-14T06:13:06;102470.50;;;8.03;85.90
64336;BME280;50672;53.362;-6.240;2023-02-14T06:15:38;102461.63;;;8.01;86.03
64336;BME280;50672;53.362;-6.240;2023-02-14T06:18:07;102469.97;;;7.98;85.87
64336;BME280;50672;53.362;-6.240;2023-02-14T06:20:39;102458.16;;;7.99;86.26
64336;BME280;50672;53.362;-6.240;2023-02-14T06:23:07;102466.03;;;8.02;86.34
64336;BME280;50672;53.362;-6.240;2023-02-14T06:25:36;102460.38;;;8.05;86.28
64336;BME280;50672;53.362;-6.240;2023-02-14T06:28:06;102462.88;;;8.08;86.50
64336;BME280;50672;53.362;-6.240;2023-02-14T06:30:36;102461.88;;;8.09;86.44
64336;BME280;50672;53.362;-6.240;2023-02-14T06:33:07;102462.53;;;8.13;86.51
64336;BME280;50672;53.362;-6.240;2023-02-14T06:35:41;102461.44;;;8.15;86.60
64336;BME280;50672;53.362;-6.240;2023-02-14T06:38:12;102454.03;;;8.17;86.75
64336;BME280;50672;53.362;-6.240;2023-02-14T06:40:39;102453.81;;;8.20;87.21
64336;BME280;50672;53.362;-6.240;2023-02-14T06:43:07;102464.31;;;8.25;87.02
64336;BME280;50672;53.362;-6.240;2023-02-14T06:45:37;102458.75;;;8.27;86.88
64336;BME280;50672;53.362;-6.240;2023-02-14T06:48:07;102458.75;;;8.27;87.26
64336;BME280;50672;53.362;-6.240;2023-02-14T06:50:36;102465.03;;;8.27;87.52
64336;BME280;50672;53.362;-6.240;2023-02-14T06:53:06;102463.22;;;8.28;87.17
64336;BME280;50672;53.362;-6.240;2023-02-14T06:55:38;102465.91;;;8.28;87.19
64336;BME280;50672;53.362;-6.240;2023-02-14T06:58:11;102469.59;;;8.27;87.51
64336;BME280;50672;53.362;-6.240;2023-02-14T07:00:42;102470.25;;;8.30;87.59
64336;BME280;50672;53.362;-6.240;2023-02-14T07:03:10;102463.09;;;8.29;87.33
64336;BME280;50672;53.362;-6.240;2023-02-14T07:05:47;102459.47;;;8.29;87.38
64336;BME280;50672;53.362;-6.240;2023-02-14T07:08:18;102457.78;;;8.28;87.85
64336;BME280;50672;53.362;-6.240;2023-02-14T07:10:46;102450.38;;;8.30;87.67
64336;BME280;50672;53.362;-6.240;2023-02-14T07:13:14;102463.69;;;8.33;87.80
64336;BME280;50672;53.362;-6.240;2023-02-14T07:15:42;102470.75;;;8.35;87.93
64336;BME280;50672;53.362;-6.240;2023-02-14T07:18:15;102466.94;;;8.38;87.85
64336;BME280;50672;53.362;-6.240;2023-02-14T07:20:45;102466.81;;;8.39;88.01
64336;BME280;50672;53.362;-6.240;2023-02-14T07:23:14;102472.88;;;8.43;87.96
64336;BME280;50672;53.362;-6.240;2023-02-14T07:25:46;102483.28;;;8.49;88.06
64336;BME280;50672;53.362;-6.240;2023-02-14T07:28:14;102482.81;;;8.55;88.14
64336;BME280;50672;53.362;-6.240;2023-02-14T07:30:42;102485.88;;;8.62;88.25
64336;BME280;50672;53.362;-6.240;2023-02-14T07:33:13;102482.72;;;8.68;87.98
64336;BME280;50672;53.362;-6.240;2023-02-14T07:35:44;102484.06;;;8.74;88.07
64336;BME280;50672;53.362;-6.240;2023-02-14T07:38:11;102487.31;;;8.79;88.13
64336;BME280;50672;53.362;-6.240;2023-02-14T07:40:41;102488.78;;;8.83;88.02
64336;BME280;50672;53.362;-6.240;2023-02-14T07:43:10;102492.09;;;8.87;88.29
64336;BME280;50672;53.362;-6.240;2023-02-14T07:45:38;102501.75;;;8.91;88.18
64336;BME280;50672;53.362;-6.240;2023-02-14T07:48:08;102499.66;;;8.95;88.23
64336;BME280;50672;53.362;-6.240;2023-02-14T07:50:40;102498.56;;;8.97;88.10
64336;BME280;50672;53.362;-6.240;2023-02-14T07:53:13;102499.28;;;8.99;87.92
64336;BME280;50672;53.362;-6.240;2023-02-14T07:55:41;102497.31;;;9.01;88.21
64336;BME280;50672;53.362;-6.240;2023-02-14T07:58:12;102501.63;;;9.04;87.87
64336;BME280;50672;53.362;-6.240;2023-02-14T08:00:43;102503.25;;;9.06;88.09
64336;BME280;50672;53.362;-6.240;2023-02-14T08:03:15;102499.28;;;9.11;88.15
64336;BME280;50672;53.362;-6.240;2023-02-14T08:05:47;102503.50;;;9.15;87.83
64336;BME280;50672;53.362;-6.240;2023-02-14T08:08:25;102506.97;;;9.17;87.78
64336;BME280;50672;53.362;-6.240;2023-02-14T08:10:54;102516.69;;;9.19;87.92
64336;BME280;50672;53.362;-6.240;2023-02-14T08:13:24;102504.84;;;9.20;87.96
64336;BME280;50672;53.362;-6.240;2023-02-14T08:15:56;102504.72;;;9.22;87.83
64336;BME280;50672;53.362;-6.240;2023-02-14T08:18:40;102508.19;;;9.24;88.09
64336;BME280;50672;53.362;-6.240;2023-02-14T08:21:10;102509.69;;;9.28;87.91
64336;BME280;50672;53.362;-6.240;2023-02-14T08:23:40;102514.88;;;9.31;87.88
64336;BME280;50672;53.362;-6.240;2023-02-14T08:26:07;102505.59;;;9.34;87.72
64336;BME280;50672;53.362;-6.240;2023-02-14T08:28:36;102509.81;;;9.38;87.71
64336;BME280;50672;53.362;-6.240;2023-02-14T08:31:05;102491.38;;;9.41;87.83
64336;BME280;50672;53.362;-6.240;2023-02-14T08:33:34;102500.03;;;9.47;87.58
64336;BME280;50672;53.362;-6.240;2023-02-14T08:36:03;102494.19;;;9.51;87.61
64336;BME280;50672;53.362;-6.240;2023-02-14T08:38:30;102494.44;;;9.60;88.03
64336;BME280;50672;53.362;-6.240;2023-02-14T08:41:00;102498.25;;;9.68;87.72
64336;BME280;50672;53.362;-6.240;2023-02-14T08:43:33;102494.19;;;9.74;88.01
64336;BME280;50672;53.362;-6.240;2023-02-14T08:46:01;102495.63;;;9.78;87.94
64336;BME280;50672;53.362;-6.240;2023-02-14T08:48:29;102496.38;;;9.80;87.51
64336;BME280;50672;53.362;-6.240;2023-02-14T08:51:03;102484.25;;;9.84;87.55
64336;BME280;50672;53.362;-6.240;2023-02-14T08:53:30;102489.44;;;9.87;87.49
64336;BME280;50672;53.362;-6.240;2023-02-14T08:56:06;102492.78;;;9.91;87.82
64336;BME280;50672;53.362;-6.240;2023-02-14T08:58:35;102491.75;;;9.92;87.43
64336;BME280;50672;53.362;-6.240;2023-02-14T09:01:08;102482.88;;;9.90;87.43
64336;BME280;50672;53.362;-6.240;2023-02-14T09:03:36;102488.59;;;9.87;87.75
64336;BME280;50672;53.362;-6.240;2023-02-14T09:06:09;102499.59;;;9.85;87.54
64336;BME280;50672;53.362;-6.240;2023-02-14T09:08:39;102498.84;;;9.83;87.28
64336;BME280;50672;53.362;-6.240;2023-02-14T09:11:08;102482.66;;;9.82;87.60
64336;BME280;50672;53.362;-6.240;2023-02-14T09:13:38;102489.69;;;9.84;87.64
64336;BME280;50672;53.362;-6.240;2023-02-14T09:16:08;102487.59;;;9.88;87.26
64336;BME280;50672;53.362;-6.240;2023-02-14T09:18:36;102485.72;;;9.88;87.29
64336;BME280;50672;53.362;-6.240;2023-02-14T09:21:11;102495.63;;;9.89;87.22
64336;BME280;50672;53.362;-6.240;2023-02-14T09:23:40;102499.94;;;9.92;87.56
64336;BME280;50672;53.362;-6.240;2023-02-14T09:26:10;102491.53;;;9.95;87.55
64336;BME280;50672;53.362;-6.240;2023-02-14T09:28:38;102499.44;;;9.98;87.16
64336;BME280;50672;53.362;-6.240;2023-02-14T09:33:36;102499.78;;;10.05;87.44
64336;BME280;50672;53.362;-6.240;2023-02-14T09:36:05;102490.50;;;10.07;87.10
64336;BME280;50672;53.362;-6.240;2023-02-14T09:38:45;102497.28;;;10.13;86.95
64336;BME280;50672;53.362;-6.240;2023-02-14T09:44:06;102501.56;;;10.16;86.91
64336;BME280;50672;53.362;-6.240;2023-02-14T09:46:42;102501.22;;;10.20;87.07
64336;BME280;50672;53.362;-6.240;2023-02-14T09:49:14;102498.44;;;10.32;87.19
64336;BME280;50672;53.362;-6.240;2023-02-14T09:51:48;102503.72;;;10.45;87.10
64336;BME280;50672;53.362;-6.240;2023-02-14T09:54:25;102502.72;;;10.46;87.12
64336;BME280;50672;53.362;-6.240;2023-02-14T09:59:56;102494.16;;;10.50;86.83
64336;BME280;50672;53.362;-6.240;2023-02-14T10:03:08;102491.16;;;10.53;86.82
64336;BME280;50672;53.362;-6.240;2023-02-14T10:05:57;102489.66;;;10.60;86.59
64336;BME280;50672;53.362;-6.240;2023-02-14T10:08:46;102494.44;;;10.68;86.66
64336;BME280;50672;53.362;-6.240;2023-02-14T10:11:22;102496.88;;;10.71;86.32
64336;BME280;50672;53.362;-6.240;2023-02-14T10:13:58;102491.91;;;10.76;86.51
64336;BME280;50672;53.362;-6.240;2023-02-14T10:16:41;102503.72;;;10.87;86.21
64336;BME280;50672;53.362;-6.240;2023-02-14T10:19:22;102504.97;;;11.04;86.21
64336;BME280;50672;53.362;-6.240;2023-02-14T10:22:00;102495.81;;;11.15;85.81
64336;BME280;50672;53.362;-6.240;2023-02-14T10:24:55;102502.44;;;11.22;85.60
64336;BME280;50672;53.362;-6.240;2023-02-14T10:27:34;102495.16;;;11.22;85.77
64336;BME280;50672;53.362;-6.240;2023-02-14T10:30:11;102500.88;;;11.19;85.22
64336;BME280;50672;53.362;-6.240;2023-02-14T10:32:53;102498.59;;;11.24;85.38
64336;BME280;50672;53.362;-6.240;2023-02-14T10:35:40;102501.50;;;11.33;85.04
64336;BME280;50672;53.362;-6.240;2023-02-14T10:39:35;102505.03;;;11.54;84.83
64336;BME280;50672;53.362;-6.240;2023-02-14T10:50:20;102511.34;;;12.35;83.76
64336;BME280;50672;53.362;-6.240;2023-02-14T10:53:29;102515.38;;;12.50;83.22
64336;BME280;50672;53.362;-6.240;2023-02-14T10:56:07;102513.94;;;12.46;82.70
64336;BME280;50672;53.362;-6.240;2023-02-14T10:58:38;102504.03;;;12.45;82.34
64336;BME280;50672;53.362;-6.240;2023-02-14T11:01:15;102509.66;;;12.43;81.75
64336;BME280;50672;53.362;-6.240;2023-02-14T11:04:02;102499.88;;;12.31;81.33
64336;BME280;50672;53.362;-6.240;2023-02-14T11:06:32;102509.22;;;12.28;81.53
64336;BME280;50672;53.362;-6.240;2023-02-14T11:08:59;102500.72;;;12.31;81.06
64336;BME280;50672;53.362;-6.240;2023-02-14T11:11:27;102505.34;;;12.31;80.74
64336;BME280;50672;53.362;-6.240;2023-02-14T11:13:55;102501.84;;;12.48;80.53
64336;BME280;50672;53.362;-6.240;2023-02-14T11:16:29;102501.16;;;12.46;80.58
64336;BME280;50672;53.362;-6.240;2023-02-14T11:21:43;102494.09;;;12.44;80.19
64336;BME280;50672;53.362;-6.240;2023-02-14T11:26:49;102501.16;;;12.27;79.55
64336;BME280;50672;53.362;-6.240;2023-02-14T11:32:13;102501.84;;;12.00;79.33
64336;BME280;50672;53.362;-6.240;2023-02-14T11:34:46;102498.94;;;11.91;79.77
64336;BME280;50672;53.362;-6.240;2023-02-14T11:39:49;102506.53;;;11.78;79.28
64336;BME280;50672;53.362;-6.240;2023-02-14T11:42:44;102504.63;;;11.69;79.39
64336;BME280;50672;53.362;-6.240;2023-02-14T11:45:33;102493.03;;;11.67;79.58
64336;BME280;50672;53.362;-6.240;2023-02-14T11:50:40;102487.97;;;11.72;79.81
64336;BME280;50672;53.362;-6.240;2023-02-14T11:53:10;102475.41;;;11.90;79.91
64336;BME280;50672;53.362;-6.240;2023-02-14T11:55:38;102472.97;;;12.07;79.86
64336;BME280;50672;53.362;-6.240;2023-02-14T11:58:07;102475.16;;;12.23;79.74
64336;BME280;50672;53.362;-6.240;2023-02-14T12:00:51;102475.69;;;12.36;79.82
64336;BME280;50672;53.362;-6.240;2023-02-14T12:03:18;102460.03;;;12.48;79.53
64336;BME280;50672;53.362;-6.240;2023-02-14T12:05:47;102462.59;;;12.59;79.54
64336;BME280;50672;53.362;-6.240;2023-02-14T12:08:23;102459.25;;;12.65;79.03
64336;BME280;50672;53.362;-6.240;2023-02-14T12:11:01;102455.66;;;12.75;79.31
64336;BME280;50672;53.362;-6.240;2023-02-14T12:13:29;102443.44;;;12.79;79.09
64336;BME280;50672;53.362;-6.240;2023-02-14T12:16:21;102436.81;;;12.81;78.79
64336;BME280;50672;53.362;-6.240;2023-02-14T12:22:38;102421.69;;;12.87;78.22
64336;BME280;50672;53.362;-6.240;2023-02-14T12:25:16;102418.94;;;12.87;77.86
64336;BME280;50672;53.362;-6.240;2023-02-14T12:28:00;102413.47;;;12.87;77.89
64336;BME280;50672;53.362;-6.240;2023-02-14T12:30:33;102405.44;;;12.86;77.71
64336;BME280;50672;53.362;-6.240;2023-02-14T12:33:00;102402.88;;;12.84;77.21
64336;BME280;50672;53.362;-6.240;2023-02-14T12:41:21;102398.56;;;12.81;76.68
64336;BME280;50672;53.362;-6.240;2023-02-14T12:44:06;102391.50;;;12.79;76.63
64336;BME280;50672;53.362;-6.240;2023-02-14T12:46:46;102380.72;;;12.77;76.61
64336;BME280;50672;53.362;-6.240;2023-02-14T13:00:34;102369.34;;;12.82;73.81
64336;BME280;50672;53.362;-6.240;2023-02-14T13:09:18;102350.72;;;12.95;72.37
64336;BME280;50672;53.362;-6.240;2023-02-14T13:15:04;102348.41;;;13.01;71.82
64336;BME280;50672;53.362;-6.240;2023-02-14T13:22:51;102337.22;;;12.94;71.91
64336;BME280;50672;53.362;-6.240;2023-02-14T13:25:29;102337.38;;;12.92;71.94
64336;BME280;50672;53.362;-6.240;2023-02-14T13:28:03;102347.16;;;12.95;71.94
64336;BME280;50672;53.362;-6.240;2023-02-14T13:30:35;102337.16;;;13.04;72.23
64336;BME280;50672;53.362;-6.240;2023-02-14T13:33:13;102328.13;;;13.21;71.86
64336;BME280;50672;53.362;-6.240;2023-02-14T13:35:43;102340.00;;;13.58;71.60
64336;BME280;50672;53.362;-6.240;2023-02-14T13:38:13;102328.34;;;13.74;71.47
64336;BME280;50672;53.362;-6.240;2023-02-14T13:40:41;102325.03;;;13.88;71.02
64336;BME280;50672;53.362;-6.240;2023-02-14T13:43:08;102318.53;;;13.89;70.59
64336;BME280;50672;53.362;-6.240;2023-02-14T13:48:11;102322.69;;;13.93;69.21
64336;BME280;50672;53.362;-6.240;2023-02-14T13:51:01;102307.66;;;13.97;68.58
64336;BME280;50672;53.362;-6.240;2023-02-14T13:53:41;102311.53;;;14.13;68.29
64336;BME280;50672;53.362;-6.240;2023-02-14T13:58:47;102312.06;;;15.20;66.73
64336;BME280;50672;53.362;-6.240;2023-02-14T14:17:43;102293.88;;;15.19;61.26
64336;BME280;50672;53.362;-6.240;2023-02-14T14:25:29;102297.78;;;15.08;60.27
64336;BME280;50672;53.362;-6.240;2023-02-14T14:27:57;102293.16;;;15.00;60.16
64336;BME280;50672;53.362;-6.240;2023-02-14T14:30:27;102306.50;;;14.95;59.85
64336;BME280;50672;53.362;-6.240;2023-02-14T14:33:27;102299.41;;;14.84;59.69
64336;BME280;50672;53.362;-6.240;2023-02-14T14:36:04;102297.19;;;14.80;59.52
64336;BME280;50672;53.362;-6.240;2023-02-14T14:38:53;102283.78;;;14.68;59.18
64336;BME280;50672;53.362;-6.240;2023-02-14T14:42:35;102280.44;;;14.57;59.50
64336;BME280;50672;53.362;-6.240;2023-02-14T14:45:45;102279.72;;;14.46;59.51
64336;BME280;50672;53.362;-6.240;2023-02-14T14:48:17;102275.19;;;14.37;59.43
64336;BME280;50672;53.362;-6.240;2023-02-14T14:50:46;102263.56;;;14.35;59.39
64336;BME280;50672;53.362;-6.240;2023-02-14T14:53:25;102258.41;;;14.32;59.35
64336;BME280;50672;53.362;-6.240;2023-02-14T14:55:54;102261.44;;;14.29;59.17
64336;BME280;50672;53.362;-6.240;2023-02-14T15:00:57;102271.69;;;14.18;59.07
64336;BME280;50672;53.362;-6.240;2023-02-14T15:03:26;102276.78;;;14.13;59.11
64336;BME280;50672;53.362;-6.240;2023-02-14T15:06:16;102274.84;;;14.06;59.34
64336;BME280;50672;53.362;-6.240;2023-02-14T15:09:17;102279.09;;;14.00;58.95
64336;BME280;50672;53.362;-6.240;2023-02-14T15:12:22;102280.59;;;13.94;59.20
64336;BME280;50672;53.362;-6.240;2023-02-14T15:15:13;102270.66;;;13.93;58.62
64336;BME280;50672;53.362;-6.240;2023-02-14T15:17:41;102277.88;;;13.94;58.80
64336;BME280;50672;53.362;-6.240;2023-02-14T15:20:16;102275.13;;;13.94;58.52
64336;BME280;50672;53.362;-6.240;2023-02-14T15:22:46;102272.91;;;13.98;58.29
64336;BME280;50672;53.362;-6.240;2023-02-14T15:25:29;102272.75;;;13.99;58.31
64336;BME280;50672;53.362;-6.240;2023-02-14T15:27:56;102262.84;;;13.98;58.49
64336;BME280;50672;53.362;-6.240;2023-02-14T15:30:26;102269.00;;;14.00;58.55
64336;BME280;50672;53.362;-6.240;2023-02-14T15:32:56;102272.44;;;14.02;58.85
64336;BME280;50672;53.362;-6.240;2023-02-14T15:35:26;102275.03;;;14.04;58.85
64336;BME280;50672;53.362;-6.240;2023-02-14T15:37:56;102260.84;;;14.09;58.80
64336;BME280;50672;53.362;-6.240;2023-02-14T15:40:29;102273.34;;;14.11;58.88
64336;BME280;50672;53.362;-6.240;2023-02-14T15:45:48;102269.44;;;14.14;59.08